createdAt,value
2022-09-22T00:00:57.214Z,16.80
2022-09-22T00:03:24.418Z,14.00
2022-09-22T00:05:58.428Z,14.40
2022-09-22T00:08:25.498Z,16.10
2022-09-22T00:11:13.692Z,13.80
2022-09-22T00:13:41.587Z,16.20
2022-09-22T00:16:09.749Z,14.60
2022-09-22T00:18:36.893Z,15.70
2022-09-22T00:21:09.223Z,15.27
2022-09-22T00:23:37.231Z,16.03
2022-09-22T00:26:05.217Z,13.70
2022-09-22T00:28:32.845Z,15.17
2022-09-22T00:30:59.916Z,14.57
2022-09-22T00:33:27.006Z,13.93
2022-09-22T00:35:58.731Z,16.50
2022-09-22T00:38:25.814Z,16.93
2022-09-22T00:40:52.936Z,18.50
2022-09-22T00:43:21.817Z,14.83
2022-09-22T00:46:14.712Z,14.97
2022-09-22T00:48:45.131Z,14.97
2022-09-22T00:51:15.021Z,16.67
2022-09-22T00:53:42.296Z,13.70
2022-09-22T00:56:29.642Z,15.13
2022-09-22T00:59:03.497Z,19.03
2022-09-22T01:01:30.807Z,16.43
2022-09-22T01:03:58.142Z,13.93
2022-09-22T01:06:27.214Z,14.87
2022-09-22T01:08:54.988Z,15.30
2022-09-22T01:11:22.365Z,15.60
2022-09-22T01:14:02.059Z,20.23
2022-09-22T01:16:40.827Z,17.23
2022-09-22T01:19:23.282Z,15.13
2022-09-22T01:21:53.452Z,21.10
2022-09-22T01:24:35.586Z,14.87
2022-09-22T01:27:21.102Z,14.40
2022-09-22T01:29:51.319Z,16.63
2022-09-22T01:32:30.226Z,16.47
2022-09-22T01:34:57.322Z,14.97
2022-09-22T01:37:27.753Z,14.80
2022-09-22T01:40:15.123Z,14.90
2022-09-22T01:42:45.574Z,13.47
2022-09-22T01:45:16.263Z,13.57
2022-09-22T01:47:47.394Z,14.77
2022-09-22T01:50:18.273Z,19.60
2022-09-22T01:52:45.652Z,14.67
2022-09-22T01:55:15.302Z,16.07
2022-09-22T01:57:48.200Z,16.93
2022-09-22T02:00:15.460Z,18.63
2022-09-22T02:02:53.496Z,14.30
2022-09-22T02:05:41.019Z,14.63
2022-09-22T02:08:10.198Z,14.67
2022-09-22T02:10:39.156Z,14.40
2022-09-22T02:13:06.375Z,14.70
2022-09-22T02:15:52.030Z,14.63
2022-09-22T02:18:21.956Z,13.13
2022-09-22T02:20:50.677Z,16.70
2022-09-22T02:23:17.779Z,16.83
2022-09-22T02:25:45.252Z,16.20
2022-09-22T02:28:14.716Z,14.73
2022-09-22T02:30:47.428Z,15.93
2022-09-22T02:33:22.500Z,16.17
2022-09-22T02:35:55.282Z,13.57
2022-09-22T02:38:26.087Z,16.63
2022-09-22T02:41:02.101Z,13.60
2022-09-22T02:43:29.177Z,13.57
2022-09-22T02:45:59.160Z,17.23
2022-09-22T02:48:31.589Z,15.83
2022-09-22T02:50:58.710Z,15.97
2022-09-22T02:53:25.802Z,15.93
2022-09-22T02:55:52.855Z,14.23
2022-09-22T02:58:19.929Z,17.13
2022-09-22T03:00:46.964Z,15.27
2022-09-22T03:03:14.055Z,14.43
2022-09-22T03:05:41.160Z,17.37
2022-09-22T03:08:08.298Z,16.13
2022-09-22T03:10:35.401Z,17.23
2022-09-22T03:13:15.885Z,15.07
2022-09-22T03:15:44.198Z,16.27
2022-09-22T03:18:11.355Z,15.93
2022-09-22T03:20:38.425Z,14.90
2022-09-22T03:23:05.464Z,15.27
2022-09-22T03:25:32.665Z,14.90
2022-09-22T03:27:59.848Z,16.53
2022-09-22T03:30:26.946Z,15.13
2022-09-22T03:32:54.012Z,21.50
2022-09-22T03:35:21.152Z,17.30
2022-09-22T03:37:48.254Z,15.13
2022-09-22T03:40:15.374Z,17.10
2022-09-22T03:42:42.583Z,14.90
2022-09-22T03:45:09.957Z,17.13
2022-09-22T03:47:37.038Z,15.37
2022-09-22T03:50:04.428Z,16.47
2022-09-22T03:52:31.517Z,16.00
2022-09-22T03:54:58.640Z,15.43
2022-09-22T03:57:25.723Z,15.50
2022-09-22T03:59:52.802Z,74.17
2022-09-22T04:02:20.007Z,20.83
2022-09-22T04:04:47.163Z,24.77
2022-09-22T04:07:14.268Z,38.77
2022-09-22T04:09:41.972Z,50.13
2022-09-22T04:12:09.799Z,38.73
2022-09-22T04:14:37.113Z,42.87
2022-09-22T04:17:05.505Z,40.50
2022-09-22T04:19:35.607Z,44.23
2022-09-22T04:22:03.378Z,34.43
2022-09-22T04:24:30.507Z,36.33
2022-09-22T04:27:18.660Z,44.33
2022-09-22T04:29:44.635Z,57.50
2022-09-22T04:32:11.748Z,60.17
2022-09-22T04:34:39.116Z,48.03
2022-09-22T04:37:06.202Z,81.20
2022-09-22T04:39:33.303Z,112.63
2022-09-22T04:42:00.374Z,63.53
2022-09-22T04:44:27.450Z,145.37
2022-09-22T04:46:55.913Z,174.53
2022-09-22T04:49:23.173Z,73.90
2022-09-22T04:51:50.271Z,95.50
2022-09-22T04:54:17.362Z,126.23
2022-09-22T04:56:44.445Z,167.17
2022-09-22T04:59:11.962Z,166.13
2022-09-22T05:01:39.170Z,181.23
2022-09-22T05:04:06.351Z,161.23
2022-09-22T05:06:33.505Z,125.97
2022-09-22T05:09:00.680Z,197.07
2022-09-22T05:11:28.328Z,312.13
2022-09-22T05:13:56.076Z,249.07
2022-09-22T05:16:23.409Z,258.97
2022-09-22T05:18:50.699Z,167.13
2022-09-22T05:21:18.892Z,225.33
2022-09-22T05:23:46.305Z,180.97
2022-09-22T05:26:13.408Z,204.27
2022-09-22T05:28:40.895Z,195.57
2022-09-22T05:31:08.063Z,211.37
2022-09-22T05:33:35.193Z,134.77
2022-09-22T05:36:02.425Z,173.47
2022-09-22T05:38:29.519Z,318.37
2022-09-22T05:40:56.618Z,150.33
2022-09-22T05:43:23.683Z,187.30
2022-09-22T05:45:50.962Z,169.43
2022-09-22T05:48:18.065Z,183.87
2022-09-22T05:50:45.489Z,97.63
2022-09-22T05:53:13.210Z,54.43
2022-09-22T05:55:40.969Z,197.67
2022-09-22T05:58:09.258Z,402.30
2022-09-22T06:00:36.688Z,350.57
2022-09-22T06:03:03.864Z,382.33
2022-09-22T06:05:31.054Z,385.93
2022-09-22T06:08:01.827Z,367.70
2022-09-22T06:10:28.939Z,326.13
2022-09-22T06:12:59.537Z,297.27
2022-09-22T06:15:27.736Z,380.40
2022-09-22T06:17:55.694Z,209.37
2022-09-22T06:20:23.006Z,257.77
2022-09-22T06:22:50.121Z,338.13
2022-09-22T06:25:17.207Z,195.47
2022-09-22T06:27:45.013Z,206.97
2022-09-22T06:30:12.560Z,185.63
2022-09-22T06:32:40.071Z,316.97
2022-09-22T06:35:07.935Z,74.20
2022-09-22T06:37:40.205Z,55.73
2022-09-22T06:40:08.806Z,234.00
2022-09-22T06:42:36.515Z,64.70
2022-09-22T06:45:05.088Z,157.70
2022-09-22T06:47:32.872Z,102.00
2022-09-22T06:50:02.238Z,100.63
2022-09-22T06:52:29.350Z,48.83
2022-09-22T06:54:58.624Z,44.57
2022-09-22T06:57:32.777Z,59.33
2022-09-22T07:00:01.075Z,24.40
2022-09-22T07:02:29.039Z,20.60
2022-09-22T07:04:59.497Z,62.83
2022-09-22T07:07:28.130Z,82.87
2022-09-22T07:09:55.613Z,30.00
2022-09-22T07:12:22.948Z,8.80
2022-09-22T07:14:51.599Z,21.97
2022-09-22T07:17:21.669Z,14.60
2022-09-22T07:19:49.550Z,61.70
2022-09-22T07:22:17.227Z,16.97
2022-09-22T07:24:44.302Z,13.53
2022-09-22T07:27:13.113Z,13.60
2022-09-22T07:29:40.458Z,16.33
2022-09-22T07:32:07.673Z,38.13
2022-09-22T07:34:34.838Z,9.97
2022-09-22T07:37:02.932Z,10.53
2022-09-22T07:39:30.004Z,15.57
2022-09-22T07:41:57.120Z,11.03
2022-09-22T07:44:44.776Z,15.60
2022-09-22T07:47:12.285Z,12.40
2022-09-22T07:49:39.324Z,13.83
2022-09-22T07:52:06.437Z,9.27
2022-09-22T07:54:36.805Z,8.17
2022-09-22T07:57:09.497Z,6.40
2022-09-22T07:59:37.951Z,7.97
2022-09-22T08:02:05.883Z,8.95
2022-09-22T08:04:33.549Z,8.50
2022-09-22T08:07:00.710Z,6.93
2022-09-22T08:09:29.662Z,7.95
2022-09-22T08:11:57.174Z,6.57
2022-09-22T08:14:24.496Z,6.85
2022-09-22T08:16:53.367Z,5.78
2022-09-22T08:19:22.990Z,6.40
2022-09-22T08:21:51.567Z,6.20
2022-09-22T08:24:23.300Z,6.15
2022-09-22T08:26:52.252Z,7.10
2022-09-22T08:29:19.422Z,7.32
2022-09-22T08:31:47.502Z,4.88
2022-09-22T08:34:16.400Z,6.35
2022-09-22T08:36:47.341Z,6.50
2022-09-22T08:39:14.946Z,7.05
2022-09-22T08:41:46.856Z,7.75
2022-09-22T08:44:26.074Z,7.18
2022-09-22T08:46:54.293Z,6.95
2022-09-22T08:50:05.990Z,8.30
2022-09-22T08:52:45.843Z,6.32
2022-09-22T08:55:21.661Z,7.03
2022-09-22T08:58:03.709Z,10.18
2022-09-22T09:00:33.485Z,6.85
2022-09-22T09:03:09.806Z,10.68
2022-09-22T09:05:46.194Z,7.47
2022-09-22T09:08:25.992Z,7.45
2022-09-22T09:10:57.151Z,9.82
2022-09-22T09:13:37.118Z,11.05
2022-09-22T09:16:22.536Z,9.85
2022-09-22T09:18:55.653Z,9.07
2022-09-22T09:21:24.020Z,9.77
2022-09-22T09:26:46.213Z,9.70
2022-09-22T09:29:16.989Z,16.08
2022-09-22T09:31:46.237Z,11.80
2022-09-22T09:34:18.001Z,8.65
2022-09-22T09:36:54.761Z,12.20
2022-09-22T09:39:32.495Z,9.98
2022-09-22T09:42:00.887Z,8.70
2022-09-22T09:44:40.008Z,8.15
2022-09-22T09:47:15.388Z,9.73
2022-09-22T09:49:42.556Z,9.73
2022-09-22T09:52:11.192Z,11.95
2022-09-22T09:54:38.592Z,15.82
2022-09-22T09:57:06.228Z,9.93
2022-09-22T09:59:52.557Z,8.80
2022-09-22T10:02:27.876Z,8.32
2022-09-22T10:04:56.781Z,7.78
2022-09-22T10:07:25.980Z,8.48
2022-09-22T10:09:53.792Z,11.32
2022-09-22T10:12:22.612Z,9.07
2022-09-22T10:14:51.634Z,7.00
2022-09-22T10:17:23.044Z,7.55
2022-09-22T10:19:50.810Z,8.25
2022-09-22T10:22:20.907Z,7.57
2022-09-22T10:25:01.797Z,8.10
2022-09-22T10:27:30.011Z,7.15
2022-09-22T10:30:27.544Z,8.13
2022-09-22T10:33:05.011Z,7.20
2022-09-22T10:35:33.652Z,5.82
2022-09-22T10:38:03.216Z,8.07
2022-09-22T10:40:31.258Z,5.97
2022-09-22T10:42:59.527Z,8.40
2022-09-22T10:45:36.780Z,7.68
2022-09-22T10:48:03.964Z,7.15
2022-09-22T10:50:31.363Z,7.22
2022-09-22T10:53:31.124Z,10.20
2022-09-22T10:56:13.249Z,8.13
2022-09-22T10:58:59.588Z,5.55
2022-09-22T11:01:47.357Z,7.40
2022-09-22T11:04:19.370Z,5.63
2022-09-22T11:07:15.922Z,5.70
2022-09-22T11:10:20.283Z,6.32
2022-09-22T11:13:01.844Z,4.75
2022-09-22T11:15:41.246Z,3.28
2022-09-22T11:18:08.363Z,6.00
2022-09-22T11:20:38.232Z,4.50
2022-09-22T11:23:24.699Z,4.95
2022-09-22T11:26:10.351Z,3.30
2022-09-22T11:28:47.685Z,6.50
2022-09-22T11:31:22.918Z,4.00
2022-09-22T11:33:57.744Z,5.05
2022-09-22T11:36:35.804Z,3.45
2022-09-22T11:39:11.940Z,4.10
2022-09-22T11:41:39.085Z,5.07
2022-09-22T11:44:13.322Z,3.22
2022-09-22T11:46:40.383Z,4.68
2022-09-22T11:49:17.554Z,5.00
2022-09-22T11:51:44.642Z,2.53
2022-09-22T11:54:14.713Z,5.63
2022-09-22T11:56:47.946Z,2.90
2022-09-22T11:59:15.033Z,3.80
2022-09-22T12:01:42.382Z,4.05
2022-09-22T12:04:35.259Z,3.55
2022-09-22T12:07:03.973Z,5.32
2022-09-22T12:09:37.196Z,4.85
2022-09-22T12:12:05.706Z,5.80
2022-09-22T12:14:33.182Z,3.67
2022-09-22T12:17:00.233Z,5.18
2022-09-22T12:19:32.879Z,4.30
2022-09-22T12:22:18.542Z,6.75
2022-09-22T12:24:46.498Z,3.90
2022-09-22T12:27:20.412Z,4.22
2022-09-22T12:29:54.428Z,3.58
2022-09-22T12:32:27.173Z,4.45
2022-09-22T12:34:57.599Z,5.85
2022-09-22T12:37:30.129Z,4.72
2022-09-22T12:40:02.366Z,3.97
2022-09-22T12:42:35.178Z,4.07
2022-09-22T12:45:10.483Z,5.53
2022-09-22T12:47:39.478Z,5.07
2022-09-22T12:50:08.812Z,4.68
2022-09-22T12:52:42.003Z,4.55
2022-09-22T12:55:28.018Z,4.05
2022-09-22T12:57:59.172Z,4.15
2022-09-22T13:00:39.604Z,6.22
2022-09-22T13:03:25.418Z,5.93
2022-09-22T13:05:53.007Z,4.25
2022-09-22T13:08:24.944Z,3.38
2022-09-22T13:10:59.746Z,7.28
2022-09-22T13:13:32.690Z,4.78
2022-09-22T13:16:01.636Z,5.45
2022-09-22T13:18:31.835Z,5.90
2022-09-22T13:20:59.686Z,5.22
2022-09-22T13:23:27.146Z,5.95
2022-09-22T13:25:54.470Z,5.35
2022-09-22T13:28:23.059Z,6.70
2022-09-22T13:31:06.240Z,7.18
2022-09-22T13:33:35.218Z,6.95
2022-09-22T13:36:02.346Z,8.80
2022-09-22T13:38:30.323Z,4.10
2022-09-22T13:40:57.436Z,4.43
2022-09-22T13:43:27.448Z,5.05
2022-09-22T13:45:55.057Z,5.72
2022-09-22T13:48:22.381Z,5.78
2022-09-22T13:50:51.648Z,7.30
2022-09-22T13:53:19.973Z,8.20
2022-09-22T13:55:51.121Z,4.50
2022-09-22T13:58:24.051Z,3.53
2022-09-22T14:01:12.694Z,6.05
2022-09-22T14:03:40.779Z,4.68
2022-09-22T14:06:15.377Z,8.00
2022-09-22T14:08:43.421Z,5.75
2022-09-22T14:11:18.326Z,6.70
2022-09-22T14:13:57.820Z,4.32
2022-09-22T14:16:25.018Z,5.07
2022-09-22T14:19:10.913Z,4.65
2022-09-22T14:21:44.642Z,5.28
2022-09-22T14:24:13.666Z,3.67
2022-09-22T14:26:45.105Z,5.00
2022-09-22T14:29:18.247Z,6.15
2022-09-22T14:31:47.164Z,7.28
2022-09-22T14:34:29.411Z,5.07
2022-09-22T14:36:56.622Z,5.80
2022-09-22T14:39:33.995Z,3.30
2022-09-22T14:42:12.027Z,6.07
2022-09-22T14:44:48.292Z,6.27
2022-09-22T14:47:21.574Z,5.70
2022-09-22T14:49:48.721Z,5.00
2022-09-22T14:52:30.294Z,9.63
2022-09-22T14:54:58.882Z,5.88
2022-09-22T14:57:27.162Z,7.38
2022-09-22T15:00:15.031Z,8.43
2022-09-22T15:02:44.539Z,8.00
2022-09-22T15:05:15.708Z,9.10
2022-09-22T15:07:48.494Z,8.80
2022-09-22T15:10:20.603Z,7.00
2022-09-22T15:12:49.801Z,5.38
2022-09-22T15:15:26.258Z,7.25
2022-09-22T15:18:15.924Z,6.95
2022-09-22T15:20:47.909Z,5.45
2022-09-22T15:23:16.638Z,3.72
2022-09-22T15:25:44.525Z,5.40
2022-09-22T15:28:16.350Z,5.72
2022-09-22T15:30:44.715Z,5.10
2022-09-22T15:33:14.641Z,6.43
2022-09-22T15:35:45.748Z,5.30
2022-09-22T15:38:15.026Z,7.05
2022-09-22T15:40:42.168Z,4.47
2022-09-22T15:43:13.477Z,4.80
2022-09-22T15:45:47.689Z,4.93
2022-09-22T15:48:36.933Z,5.07
2022-09-22T15:51:08.518Z,6.28
2022-09-22T15:53:37.662Z,7.80
2022-09-22T15:56:06.856Z,7.13
2022-09-22T15:58:37.904Z,5.33
2022-09-22T16:01:05.776Z,4.60
2022-09-22T16:03:37.880Z,3.70
2022-09-22T16:06:09.349Z,4.60
2022-09-22T16:08:42.060Z,6.30
2022-09-22T16:11:16.114Z,7.33
2022-09-22T16:13:43.487Z,5.57
2022-09-22T16:16:11.092Z,5.17
2022-09-22T16:18:42.101Z,6.83
2022-09-22T16:21:18.533Z,6.23
2022-09-22T16:23:45.627Z,4.60
2022-09-22T16:26:12.694Z,6.00
2022-09-22T16:28:39.957Z,5.70
2022-09-22T16:31:11.256Z,4.40
2022-09-22T16:33:38.383Z,4.53
2022-09-22T16:36:05.612Z,9.40
2022-09-22T16:38:34.513Z,5.63
2022-09-22T16:41:02.962Z,4.10
2022-09-22T16:43:30.096Z,5.50
2022-09-22T16:46:20.525Z,5.30
2022-09-22T16:48:47.627Z,7.93
2022-09-22T16:51:16.256Z,6.00
2022-09-22T16:53:43.668Z,5.23
2022-09-22T16:56:10.705Z,8.03
2022-09-22T16:58:37.906Z,6.73
2022-09-22T17:01:05.826Z,7.90
2022-09-22T17:03:32.956Z,7.87
2022-09-22T17:06:05.552Z,9.37
2022-09-22T17:08:32.935Z,8.27
2022-09-22T17:11:00.060Z,12.87
2022-09-22T17:13:30.945Z,9.03
2022-09-22T17:16:18.453Z,10.47
2022-09-22T17:18:45.833Z,11.57
2022-09-22T17:21:13.368Z,9.43
2022-09-22T17:23:40.530Z,8.73
2022-09-22T17:26:12.012Z,10.10
2022-09-22T17:28:39.790Z,7.13
2022-09-22T17:31:07.632Z,7.00
2022-09-22T17:33:52.202Z,6.17
2022-09-22T17:36:21.127Z,4.13
2022-09-22T17:38:50.749Z,6.67
2022-09-22T17:41:21.713Z,5.87
2022-09-22T17:43:53.197Z,5.53
2022-09-22T17:46:20.981Z,6.37
2022-09-22T17:49:07.409Z,6.20
2022-09-22T17:51:57.624Z,6.23
2022-09-22T17:54:44.643Z,5.70
2022-09-22T17:57:12.902Z,13.90
2022-09-22T17:59:41.441Z,14.10
2022-09-22T18:02:11.035Z,10.97
2022-09-22T18:04:41.022Z,7.80
2022-09-22T18:07:09.593Z,8.33
2022-09-22T18:09:38.256Z,11.97
2022-09-22T18:12:06.750Z,10.20
2022-09-22T18:14:34.493Z,12.90
2022-09-22T18:17:06.666Z,12.13
2022-09-22T18:19:36.486Z,11.83
2022-09-22T18:22:06.291Z,14.13
2022-09-22T18:24:34.126Z,15.97
2022-09-22T18:27:04.516Z,13.40
2022-09-22T18:29:32.162Z,11.47
2022-09-22T18:31:59.727Z,14.83
2022-09-22T18:34:33.123Z,10.70
2022-09-22T18:37:00.890Z,11.10
2022-09-22T18:39:28.406Z,9.23
2022-09-22T18:41:56.489Z,12.80
2022-09-22T18:44:23.921Z,10.77
2022-09-22T18:46:51.028Z,11.27
2022-09-22T18:49:18.469Z,12.40
2022-09-22T18:51:49.191Z,10.30
2022-09-22T18:54:21.686Z,11.67
2022-09-22T18:56:49.589Z,12.03
2022-09-22T18:59:18.703Z,15.10
2022-09-22T19:01:46.248Z,23.43
2022-09-22T19:04:17.032Z,21.70
2022-09-22T19:07:06.780Z,20.33
2022-09-22T19:09:34.347Z,23.43
2022-09-22T19:12:01.754Z,22.10
2022-09-22T19:14:36.279Z,21.80
2022-09-22T19:17:04.109Z,19.17
2022-09-22T19:19:31.235Z,16.60
2022-09-22T19:21:58.278Z,16.53
2022-09-22T19:24:26.415Z,14.90
2022-09-22T19:26:55.399Z,16.93
2022-09-22T19:29:22.828Z,19.27
2022-09-22T19:31:49.967Z,15.10
2022-09-22T19:34:17.161Z,13.00
2022-09-22T19:36:44.302Z,14.47
2022-09-22T19:39:11.413Z,13.87
2022-09-22T19:41:47.718Z,16.83
2022-09-22T19:44:18.869Z,19.37
2022-09-22T19:46:46.932Z,16.07
2022-09-22T19:49:14.586Z,18.97
2022-09-22T19:51:42.628Z,21.87
2022-09-22T19:54:10.011Z,17.07
2022-09-22T19:56:37.300Z,14.73
2022-09-22T19:59:07.170Z,15.37
2022-09-22T20:01:35.902Z,14.73
2022-09-22T20:04:03.384Z,15.40
2022-09-22T20:06:30.741Z,16.43
2022-09-22T20:09:02.747Z,16.13
2022-09-22T20:11:33.572Z,14.80
2022-09-22T20:14:19.260Z,16.47
2022-09-22T20:16:50.204Z,14.90
2022-09-22T20:19:17.716Z,14.00
2022-09-22T20:21:45.649Z,13.97
2022-09-22T20:24:14.245Z,13.07
2022-09-22T20:26:42.152Z,13.90
2022-09-22T20:29:09.860Z,16.40
2022-09-22T20:31:37.038Z,15.80
2022-09-22T20:34:05.776Z,16.40
2022-09-22T20:36:36.913Z,14.30
2022-09-22T20:39:04.672Z,15.20
2022-09-22T20:41:32.490Z,17.20
2022-09-22T20:43:59.733Z,18.97
2022-09-22T20:46:26.981Z,16.23
2022-09-22T20:48:55.470Z,18.23
2022-09-22T20:51:23.427Z,18.60
2022-09-22T20:53:50.842Z,15.43
2022-09-22T20:56:18.120Z,16.07
2022-09-22T20:58:46.108Z,15.63
2022-09-22T21:01:14.441Z,14.63
2022-09-22T21:03:41.642Z,16.93
2022-09-22T21:06:09.722Z,16.17
2022-09-22T21:08:59.492Z,15.00
2022-09-22T21:11:27.824Z,15.03
2022-09-22T21:13:56.558Z,19.77
2022-09-22T21:16:23.755Z,17.53
2022-09-22T21:18:51.703Z,20.60
2022-09-22T21:21:19.791Z,21.40
2022-09-22T21:23:48.836Z,18.03
2022-09-22T21:26:16.477Z,18.83
2022-09-22T21:28:44.216Z,15.87
2022-09-22T21:31:12.608Z,17.37
2022-09-22T21:33:39.695Z,20.87
2022-09-22T21:36:08.620Z,20.27
2022-09-22T21:38:38.847Z,18.77
2022-09-22T21:41:07.441Z,16.87
2022-09-22T21:43:35.253Z,18.00
2022-09-22T21:46:05.418Z,17.33
2022-09-22T21:48:36.165Z,17.27
2022-09-22T21:51:08.042Z,17.63
2022-09-22T21:53:36.029Z,16.97
2022-09-22T21:56:07.056Z,18.87
2022-09-22T21:58:36.078Z,18.43
2022-09-22T22:01:10.424Z,19.77
2022-09-22T22:03:42.102Z,22.60
2022-09-22T22:06:12.128Z,19.50
2022-09-22T22:08:42.035Z,21.33
2022-09-22T22:11:10.633Z,20.97
2022-09-22T22:13:38.698Z,22.40
2022-09-22T22:16:08.246Z,24.10
2022-09-22T22:18:36.613Z,21.33
2022-09-22T22:21:08.076Z,22.10
2022-09-22T22:23:37.138Z,23.90
2022-09-22T22:26:07.582Z,23.20
2022-09-22T22:28:36.002Z,20.70
2022-09-22T22:31:07.417Z,23.33
2022-09-22T22:33:35.393Z,20.30
2022-09-22T22:36:02.677Z,22.47
2022-09-22T22:38:31.047Z,21.80
2022-09-22T22:41:17.266Z,17.53
2022-09-22T22:43:45.202Z,23.57
2022-09-22T22:46:16.498Z,19.93
2022-09-22T22:48:44.325Z,23.53
2022-09-22T22:51:15.210Z,21.50
2022-09-22T22:53:42.774Z,22.67
2022-09-22T22:56:14.355Z,19.60
2022-09-22T22:58:42.727Z,19.07
2022-09-22T23:01:11.340Z,20.20
2022-09-22T23:03:42.463Z,19.20
2022-09-22T23:06:10.503Z,20.30
2022-09-22T23:08:37.665Z,18.67
2022-09-22T23:11:06.388Z,19.20
2022-09-22T23:13:33.946Z,18.13
2022-09-22T23:16:02.608Z,17.60
2022-09-22T23:18:29.885Z,17.17
2022-09-22T23:20:56.958Z,18.60
2022-09-22T23:23:24.130Z,17.77
2022-09-22T23:25:51.572Z,20.43
2022-09-22T23:28:18.617Z,19.67
2022-09-22T23:30:45.799Z,24.47
2022-09-22T23:33:13.187Z,18.23
2022-09-22T23:35:40.304Z,15.60
2022-09-22T23:38:09.047Z,18.13
2022-09-22T23:40:36.571Z,16.67
2022-09-22T23:43:03.700Z,18.30
2022-09-22T23:45:30.814Z,18.43
2022-09-22T23:47:57.927Z,15.80
2022-09-22T23:50:25.021Z,19.37
2022-09-22T23:52:52.089Z,17.27
2022-09-22T23:55:19.285Z,17.37
2022-09-22T23:57:46.628Z,18.13
